Time;durP1;ratioP1;P1;durP2;ratioP2;P2;SDS_P1;SDS_P2;PMS_P1;PMS_P2;Temp;Humidity;BMP_temperature;BMP_pressure;BME280_temperature;BME280_humidity;BME280_pressure;Samples;Min_cycle;Max_cycle;Signal;HPM_P1;HPM_P2
2022/07/24 00:02:20;;;;;;;2.67;1.40;;;15.60;99.90;;;;;;6282006;22;20444;-95
2022/07/24 00:04:46;;;;;;;3.60;1.30;;;15.50;99.90;;;;;;6255705;22;20339;-95
2022/07/24 00:07:12;;;;;;;3.05;1.30;;;15.60;99.90;;;;;;6256690;22;20127;-96
2022/07/24 00:09:38;;;;;;;3.15;1.40;;;15.50;99.90;;;;;;6256844;22;20097;-94
2022/07/24 00:15:20;;;;;;;2.88;1.25;;;15.50;99.90;;;;;;6269791;22;20051;-96
2022/07/24 00:17:46;;;;;;;4.05;1.42;;;15.50;99.90;;;;;;6259027;22;20030;-96
2022/07/24 00:20:11;;;;;;;4.30;1.60;;;15.50;99.90;;;;;;6258541;22;20011;-95
2022/07/24 00:22:37;;;;;;;3.80;1.52;;;15.50;99.90;;;;;;6257451;22;20094;-95
2022/07/24 00:33:36;;;;;;;3.88;1.30;;;15.40;99.90;;;;;;6254278;22;20027;-95
2022/07/24 00:36:26;;;;;;;2.33;1.13;;;15.40;99.90;;;;;;6251900;22;20444;-95
2022/07/24 00:38:51;;;;;;;2.63;1.20;;;15.40;99.90;;;;;;6251506;22;20012;-96
2022/07/24 00:41:17;;;;;;;3.17;1.40;;;15.40;99.90;;;;;;6226130;22;20061;-94
2022/07/24 00:44:07;;;;;;;3.70;1.70;;;15.50;99.90;;;;;;6226273;22;20445;-88
2022/07/24 00:46:34;;;;;;;2.58;1.15;;;15.50;99.90;;;;;;6279161;22;20467;-92
2022/07/24 00:48:59;;;;;;;3.08;1.60;;;15.50;99.90;;;;;;6226231;22;20379;-95
2022/07/24 00:54:05;;;;;;;3.90;1.58;;;15.50;99.90;;;;;;6279877;22;20332;-96
2022/07/24 00:56:31;;;;;;;3.72;1.80;;;15.50;99.90;;;;;;6226342;22;20515;-94
2022/07/24 01:30:16;;;;;;;;;;;;;;;;;;;;;
2022/07/24 01:41:12;;;;;;;3.85;1.60;;;15.10;99.90;;;;;;6314736;22;20023;-96
2022/07/24 01:44:03;;;;;;;4.95;1.88;;;15.10;99.90;;;;;;6257255;22;20118;-91
2022/07/24 01:46:28;;;;;;;3.95;1.70;;;15.10;99.90;;;;;;6257217;22;20026;-93
2022/07/24 01:48:54;;;;;;;3.90;1.85;;;15.10;99.90;;;;;;6258886;22;20015;-92
2022/07/24 01:51:20;;;;;;;4.70;2.08;;;15.10;99.90;;;;;;6258744;22;20452;-96
2022/07/24 01:53:46;;;;;;;4.32;1.85;;;15.10;99.90;;;;;;6261206;22;20038;-92
2022/07/24 01:56:17;;;;;;;4.13;1.77;;;15.10;99.90;;;;;;6263135;22;20019;-96
2022/07/24 02:09:04;;;;;;;4.07;1.75;;;15.10;99.90;;;;;;6278334;22;20020;-91
2022/07/24 02:11:32;;;;;;;5.15;2.05;;;15.10;99.90;;;;;;6258810;22;20135;-93
2022/07/24 02:14:06;;;;;;;4.07;1.88;;;15.10;99.90;;;;;;6260669;22;20046;-94
2022/07/24 02:16:31;;;;;;;4.00;1.75;;;15.10;99.90;;;;;;6269682;22;20041;-92
2022/07/24 02:18:57;;;;;;;4.97;1.90;;;15.10;99.90;;;;;;6272508;22;20003;-90
2022/07/24 02:21:23;;;;;;;3.73;1.80;;;15.10;99.90;;;;;;6279679;22;20076;-92
2022/07/24 02:23:54;;;;;;;3.60;1.80;;;15.10;99.90;;;;;;6260459;22;20571;-92
2022/07/24 02:34:06;;;;;;;4.15;2.15;;;15.20;99.90;;;;;;6311391;22;20031;-96
2022/07/24 02:36:32;;;;;;;3.80;1.70;;;15.20;99.90;;;;;;6287707;22;20067;-96
2022/07/24 02:38:57;;;;;;;4.13;1.88;;;15.20;99.90;;;;;;6257302;22;20050;-92
2022/07/24 02:41:23;;;;;;;4.35;2.10;;;15.20;99.90;;;;;;6257502;22;20011;-94
2022/07/24 02:44:12;;;;;;;3.95;1.88;;;15.20;99.90;;;;;;6256742;22;20015;-93
2022/07/24 02:46:58;;;;;;;5.75;1.85;;;15.10;99.90;;;;;;6243007;22;20019;-95
2022/07/24 02:49:24;;;;;;;4.18;1.75;;;15.10;99.90;;;;;;6257016;22;20015;-91
2022/07/24 02:59:38;;;;;;;4.28;2.15;;;15.10;99.90;;;;;;6321214;22;20053;-93
2022/07/24 03:02:04;;;;;;;4.05;1.90;;;15.10;99.90;;;;;;6259089;22;20093;-96
2022/07/24 03:05:14;;;;;;;4.72;2.17;;;15.10;99.90;;;;;;6261538;22;20391;-95
2022/07/24 03:07:41;;;;;;;4.57;1.98;;;15.20;99.90;;;;;;6121866;22;20088;-96
2022/07/24 03:12:59;;;;;;;4.43;2.20;;;15.20;99.90;;;;;;6256580;22;20403;-96
2022/07/24 03:15:24;;;;;;;4.18;1.90;;;15.20;99.90;;;;;;6257385;22;20054;-94
2022/07/24 03:17:53;;;;;;;4.50;2.25;;;15.20;99.90;;;;;;6265223;22;20015;-96
2022/07/24 03:20:22;;;;;;;5.68;2.30;;;15.20;99.90;;;;;;6264350;22;20038;-94
2022/07/24 03:22:49;;;;;;;4.80;2.53;;;15.20;99.90;;;;;;6260600;22;20015;-92
2022/07/24 03:25:15;;;;;;;4.38;2.22;;;15.20;99.90;;;;;;6291181;22;20015;-96
2022/07/24 03:27:41;;;;;;;4.43;2.28;;;15.20;99.90;;;;;;6258642;22;20030;-93
2022/07/24 03:30:08;;;;;;;4.47;2.08;;;15.20;99.90;;;;;;6256942;22;20478;-96
2022/07/24 03:35:15;;;;;;;5.63;2.67;;;15.20;99.90;;;;;;6309421;22;20023;-95
2022/07/24 03:37:41;;;;;;;4.68;2.65;;;15.20;99.90;;;;;;6282658;22;20020;-96
2022/07/24 03:40:32;;;;;;;4.55;2.30;;;15.20;99.90;;;;;;6274942;22;20049;-89
2022/07/24 03:42:58;;;;;;;4.70;2.15;;;15.20;99.90;;;;;;6278135;22;20015;-96
2022/07/24 03:45:23;;;;;;;4.85;2.35;;;15.20;99.90;;;;;;6290107;22;20528;-96
2022/07/24 03:47:49;;;;;;;4.10;2.05;;;15.20;99.90;;;;;;6258496;22;20007;-92
2022/07/24 03:50:14;;;;;;;5.03;2.30;;;15.20;99.90;;;;;;6256658;22;20026;-95
2022/07/24 03:52:40;;;;;;;6.13;2.85;;;15.20;99.90;;;;;;6293712;22;20015;-92
2022/07/24 03:55:53;;;;;;;4.23;2.57;;;15.30;99.90;;;;;;6319299;22;20015;-92
2022/07/24 03:58:41;;;;;;;4.55;2.17;;;15.30;99.90;;;;;;6263074;22;20015;-92
2022/07/24 04:01:25;;;;;;;5.10;2.65;;;15.30;99.90;;;;;;6256947;22;20506;-92
2022/07/24 04:03:51;;;;;;;4.53;2.20;;;15.30;99.90;;;;;;6256657;22;20133;-92
2022/07/24 04:06:17;;;;;;;5.60;2.20;;;15.30;99.90;;;;;;6256841;22;20380;-91
2022/07/24 04:08:43;;;;;;;4.60;2.20;;;15.30;99.90;;;;;;6256755;22;20022;-91
2022/07/24 04:11:08;;;;;;;4.55;2.20;;;15.30;99.90;;;;;;6256491;22;20107;-91
2022/07/24 04:13:34;;;;;;;4.20;2.05;;;15.30;99.90;;;;;;6256401;22;20015;-92
2022/07/24 04:16:00;;;;;;;5.00;2.42;;;15.30;99.90;;;;;;6256591;22;20093;-94
2022/07/24 04:18:26;;;;;;;5.20;2.38;;;15.30;99.90;;;;;;6256978;22;20080;-93
2022/07/24 04:20:52;;;;;;;5.43;2.30;;;15.30;99.90;;;;;;6256708;22;20054;-94
2022/07/24 04:23:18;;;;;;;4.45;2.58;;;15.40;99.90;;;;;;6256446;22;20022;-92
2022/07/24 04:25:44;;;;;;;4.60;2.22;;;15.40;99.90;;;;;;6256769;22;20411;-93
2022/07/24 04:28:10;;;;;;;4.05;1.88;;;15.40;99.90;;;;;;6256557;22;20026;-93
2022/07/24 04:30:36;;;;;;;5.25;2.42;;;15.40;99.90;;;;;;6259401;22;20015;-92
2022/07/24 04:33:02;;;;;;;5.18;2.30;;;15.40;99.90;;;;;;6274491;22;20118;-91
2022/07/24 04:35:27;;;;;;;5.03;1.98;;;15.40;99.90;;;;;;6273014;22;20026;-91
2022/07/24 04:37:53;;;;;;;7.45;2.45;;;15.40;99.90;;;;;;6259076;22;20016;-91
2022/07/24 04:40:19;;;;;;;4.22;1.98;;;15.40;99.90;;;;;;6256637;22;20011;-91
2022/07/24 04:42:45;;;;;;;4.95;2.40;;;15.40;99.90;;;;;;6256475;22;20126;-91
2022/07/24 04:45:11;;;;;;;4.68;2.42;;;15.40;99.90;;;;;;6256357;22;20008;-92
2022/07/24 04:47:37;;;;;;;4.50;2.38;;;15.50;99.90;;;;;;6256264;22;20080;-91
2022/07/24 05:35:10;;;;;;;5.45;2.30;;;16.30;99.90;;;;;;6315863;22;20072;-95
2022/07/24 05:38:33;;;;;;;4.75;2.20;;;16.30;99.90;;;;;;6286448;22;20101;-96
2022/07/24 05:40:58;;;;;;;4.53;2.50;;;16.40;99.90;;;;;;6286534;22;20025;-92
2022/07/24 05:43:24;;;;;;;5.00;2.53;;;16.50;99.90;;;;;;6286093;22;20015;-95
2022/07/24 05:45:50;;;;;;;5.18;2.53;;;16.50;99.90;;;;;;6286493;22;20524;-94
2022/07/24 05:48:16;;;;;;;5.07;2.38;;;16.60;99.90;;;;;;6286541;22;20467;-94
2022/07/24 05:50:41;;;;;;;7.10;2.95;;;16.60;99.90;;;;;;6286444;22;20028;-95
2022/07/24 05:53:29;;;;;;;5.18;2.50;;;16.70;99.90;;;;;;6287141;22;20014;-88
2022/07/24 05:55:55;;;;;;;4.53;2.25;;;16.70;99.90;;;;;;6286442;22;20086;-95
2022/07/24 05:58:20;;;;;;;4.03;2.35;;;16.70;99.90;;;;;;6286507;22;20049;-94
2022/07/24 06:00:46;;;;;;;6.43;2.58;;;16.80;99.90;;;;;;6286480;22;20011;-96
2022/07/24 06:03:55;;;;;;;5.13;2.40;;;16.90;99.90;;;;;;6286767;22;20095;-91
2022/07/24 06:10:02;;;;;;;5.40;2.50;;;17.00;99.90;;;;;;6339837;22;20367;-94
2022/07/24 06:12:27;;;;;;;5.10;2.45;;;17.20;99.90;;;;;;6286816;22;20011;-93
2022/07/24 06:14:53;;;;;;;5.50;2.65;;;17.40;99.90;;;;;;6286426;22;20014;-96
2022/07/24 06:17:19;;;;;;;4.50;2.58;;;17.60;99.90;;;;;;6288150;22;20094;-95
2022/07/24 06:19:44;;;;;;;5.30;2.55;;;18.00;99.90;;;;;;6286735;22;20102;-88
2022/07/24 06:22:40;;;;;;;6.05;2.55;;;18.20;99.90;;;;;;6312639;22;20064;-89
2022/07/24 06:25:06;;;;;;;6.25;3.25;;;18.30;99.90;;;;;;6286066;22;20018;-95
2022/07/24 06:27:31;;;;;;;5.53;2.47;;;18.50;99.90;;;;;;6286205;22;20064;-89
2022/07/24 06:29:57;;;;;;;7.50;3.28;;;18.50;99.90;;;;;;6286572;22;20097;-95
2022/07/24 06:32:23;;;;;;;4.97;2.63;;;18.50;99.90;;;;;;6286410;22;20011;-94
2022/07/24 06:34:48;;;;;;;6.20;3.17;;;18.60;99.90;;;;;;6286201;22;20026;-95
2022/07/24 06:37:14;;;;;;;5.38;3.00;;;18.70;99.90;;;;;;6288333;22;20019;-93
2022/07/24 06:39:40;;;;;;;6.30;3.20;;;18.80;99.90;;;;;;6301898;22;20031;-92
2022/07/24 06:42:06;;;;;;;7.13;3.63;;;19.00;99.90;;;;;;6289051;22;20049;-92
2022/07/24 06:44:33;;;;;;;7.00;3.42;;;19.40;99.90;;;;;;6286345;22;20026;-95
2022/07/24 06:46:59;;;;;;;7.18;3.78;;;20.20;99.90;;;;;;6286421;22;20404;-93
2022/07/24 06:49:25;;;;;;;7.05;3.88;;;21.00;99.90;;;;;;6286228;22;20084;-93
2022/07/24 06:51:50;;;;;;;7.53;3.88;;;21.70;99.90;;;;;;6286124;22;20021;-95
2022/07/24 06:54:16;;;;;;;6.57;3.67;;;22.30;99.90;;;;;;6311912;22;20011;-96
2022/07/24 06:56:43;;;;;;;6.50;3.67;;;22.90;99.90;;;;;;6286125;22;20029;-95
2022/07/24 06:59:09;;;;;;;6.80;3.70;;;23.30;99.90;;;;;;6286367;22;20022;-95
2022/07/24 07:01:34;;;;;;;6.90;3.88;;;23.50;99.90;;;;;;6286115;22;20015;-92
2022/07/24 07:04:00;;;;;;;8.00;3.95;;;23.60;99.90;;;;;;6286211;22;20018;-94
2022/07/24 07:06:26;;;;;;;6.53;3.72;;;23.60;99.90;;;;;;6286224;22;20015;-92
2022/07/24 07:08:52;;;;;;;;;;;23.50;99.90;;;;;;6286936;22;20023;-91
2022/07/24 07:11:18;;;;;;;8.50;4.13;;;23.40;99.90;;;;;;6286655;22;19981;-95
2022/07/24 07:13:43;;;;;;;9.27;3.92;;;23.40;99.90;;;;;;6290400;22;20011;-95
2022/07/24 07:16:09;;;;;;;8.30;4.55;;;23.60;99.90;;;;;;6316571;22;20050;-91
2022/07/24 07:18:36;;;;;;;11.13;4.15;;;23.90;99.90;;;;;;6307274;22;20078;-91
2022/07/24 07:21:02;;;;;;;9.10;4.90;;;24.00;99.90;;;;;;6288266;22;20030;-93
2022/07/24 07:23:28;;;;;;;8.68;4.65;;;24.20;99.90;;;;;;6287861;22;20043;-91
2022/07/24 07:25:54;;;;;;;9.43;4.57;;;24.40;99.90;;;;;;6288022;22;20007;-92
2022/07/24 07:28:22;;;;;;;9.82;4.18;;;24.70;99.90;;;;;;6288073;22;20014;-93
2022/07/24 07:30:48;;;;;;;8.38;4.65;;;24.90;99.90;;;;;;6287661;22;20029;-93
2022/07/24 07:33:14;;;;;;;8.90;4.65;;;24.80;98.40;;;;;;6287950;22;20449;-93
2022/07/24 07:35:40;;;;;;;9.05;4.43;;;24.40;98.60;;;;;;6287798;22;20026;-95
2022/07/24 07:38:05;;;;;;;6.78;3.78;;;24.20;98.60;;;;;;6287612;22;20014;-95
2022/07/24 07:40:31;;;;;;;8.27;3.78;;;24.00;99.20;;;;;;6287695;22;20025;-91
2022/07/24 07:42:57;;;;;;;6.30;3.03;;;23.80;99.50;;;;;;6287681;22;20011;-92
2022/07/24 07:45:22;;;;;;;6.80;3.60;;;23.60;99.90;;;;;;6287244;22;20011;-94
2022/07/24 07:47:48;;;;;;;7.55;3.55;;;23.40;99.90;;;;;;6313497;22;20103;-92
2022/07/24 07:50:14;;;;;;;6.38;3.05;;;23.10;99.90;;;;;;6287702;22;20077;-95
2022/07/24 07:52:40;;;;;;;6.15;3.15;;;23.00;99.90;;;;;;6313419;22;20083;-90
2022/07/24 07:55:06;;;;;;;6.53;2.75;;;22.80;99.90;;;;;;6287506;22;20045;-93
2022/07/24 07:57:31;;;;;;;;;;;22.70;99.90;;;;;;6288303;22;20014;-91
2022/07/24 07:59:57;;;;;;;5.40;2.63;;;22.50;99.90;;;;;;6287587;22;20358;-94
2022/07/24 08:02:23;;;;;;;4.95;2.30;;;22.40;99.90;;;;;;6313574;22;20011;-93
2022/07/24 08:04:49;;;;;;;4.78;2.15;;;22.30;99.90;;;;;;6287786;22;20015;-92
2022/07/24 08:07:15;;;;;;;5.60;2.47;;;22.10;99.90;;;;;;6287450;22;20011;-89
2022/07/24 08:09:40;;;;;;;4.40;2.17;;;22.00;99.90;;;;;;6287365;22;20513;-91
2022/07/24 08:12:06;;;;;;;5.20;2.20;;;22.00;99.90;;;;;;6287646;22;20011;-90
2022/07/24 08:14:32;;;;;;;4.45;2.05;;;21.90;99.90;;;;;;6340533;22;20023;-91
2022/07/24 08:16:58;;;;;;;5.10;2.10;;;21.90;99.90;;;;;;6287278;22;20018;-93
2022/07/24 08:19:24;;;;;;;3.28;1.58;;;21.90;99.90;;;;;;6287072;22;20019;-96
2022/07/24 08:21:50;;;;;;;2.70;1.40;;;21.90;99.90;;;;;;6287393;22;20455;-92
2022/07/24 08:24:20;;;;;;;3.53;1.63;;;21.90;99.90;;;;;;6312824;22;20019;-94
2022/07/24 08:26:49;;;;;;;3.45;1.70;;;21.80;99.90;;;;;;6312553;22;20046;-89
2022/07/24 08:29:15;;;;;;;4.80;1.40;;;21.80;99.90;;;;;;6287235;22;20365;-94
2022/07/24 08:31:41;;;;;;;2.65;1.15;;;21.80;99.90;;;;;;6287322;22;20025;-92
2022/07/24 08:34:07;;;;;;;3.85;1.35;;;21.80;99.90;;;;;;6286926;22;20019;-91
2022/07/24 08:36:33;;;;;;;3.10;1.58;;;21.80;99.90;;;;;;6286661;22;20063;-93
2022/07/24 08:39:02;;;;;;;2.88;1.33;;;21.90;99.90;;;;;;6313546;22;20030;-88
2022/07/24 08:41:32;;;;;;;2.35;1.20;;;22.00;99.90;;;;;;6312406;22;20007;-90
2022/07/24 08:43:59;;;;;;;2.92;1.25;;;22.10;99.90;;;;;;6286804;22;20049;-90
2022/07/24 08:46:26;;;;;;;3.63;1.50;;;22.10;99.90;;;;;;6286833;22;20091;-89
2022/07/24 08:48:53;;;;;;;3.72;1.33;;;22.10;99.90;;;;;;6312838;22;20530;-90
2022/07/24 08:51:21;;;;;;;3.42;1.42;;;22.20;99.90;;;;;;6312638;22;20067;-91
2022/07/24 08:53:47;;;;;;;3.17;1.55;;;22.20;99.90;;;;;;6286989;22;20026;-93
2022/07/24 08:56:13;;;;;;;3.20;1.42;;;22.20;99.90;;;;;;6312838;22;20340;-91
2022/07/24 08:58:40;;;;;;;3.15;1.50;;;22.20;99.90;;;;;;6287067;22;20011;-95
2022/07/24 09:01:08;;;;;;;3.50;1.30;;;22.20;99.90;;;;;;6312735;22;20057;-93
2022/07/24 09:03:45;;;;;;;3.22;1.45;;;22.20;99.90;;;;;;6287019;22;20517;-91
2022/07/24 09:06:13;;;;;;;2.25;1.08;;;22.20;99.90;;;;;;6286941;22;20019;-91
2022/07/24 09:08:56;;;;;;;3.42;1.27;;;22.20;99.90;;;;;;6286811;22;20021;-93
2022/07/24 09:11:33;;;;;;;5.22;1.40;;;22.20;99.90;;;;;;6286656;22;20071;-91
2022/07/24 09:16:47;;;;;;;4.03;1.30;;;22.30;99.90;;;;;;6312376;22;20026;-92
2022/07/24 09:19:16;;;;;;;2.63;1.40;;;22.40;99.90;;;;;;6312620;22;20050;-90
2022/07/24 09:21:42;;;;;;;4.68;1.83;;;22.40;99.90;;;;;;6286444;22;20011;-89
2022/07/24 09:24:13;;;;;;;3.78;1.63;;;22.40;99.90;;;;;;6315371;22;20037;-91
2022/07/24 09:26:58;;;;;;;4.07;1.77;;;22.50;99.90;;;;;;6294476;22;20046;-90
2022/07/24 09:29:25;;;;;;;3.63;1.60;;;22.50;99.90;;;;;;6286636;22;20452;-92
2022/07/24 09:31:59;;;;;;;3.90;2.10;;;22.50;99.90;;;;;;6286741;22;20015;-89
2022/07/24 09:34:27;;;;;;;3.47;1.73;;;22.50;99.90;;;;;;6286622;22;20042;-91
2022/07/24 09:37:01;;;;;;;4.53;2.08;;;22.50;99.90;;;;;;6286507;22;20424;-92
2022/07/24 09:39:34;;;;;;;3.55;1.80;;;22.60;99.90;;;;;;6286655;22;20060;-90
2022/07/24 09:42:02;;;;;;;6.85;1.92;;;22.70;99.90;;;;;;6286359;22;20019;-90
2022/07/24 09:44:29;;;;;;;3.38;1.65;;;22.70;99.90;;;;;;6286071;22;20014;-88
2022/07/24 09:47:04;;;;;;;3.65;1.48;;;22.80;99.90;;;;;;6312032;22;20081;-90
2022/07/24 09:49:31;;;;;;;3.58;1.80;;;22.90;99.90;;;;;;6286366;22;20084;-90
2022/07/24 09:52:10;;;;;;;4.18;1.73;;;23.00;99.90;;;;;;6286251;22;20011;-90
2022/07/24 09:54:42;;;;;;;2.83;1.58;;;23.00;99.90;;;;;;6286318;22;20079;-91
2022/07/24 09:57:18;;;;;;;4.15;1.73;;;23.10;99.90;;;;;;6286183;22;20090;-90
2022/07/24 09:59:57;;;;;;;3.72;1.63;;;23.10;99.90;;;;;;6288851;22;20455;-91
2022/07/24 10:02:26;;;;;;;3.17;1.27;;;23.20;99.90;;;;;;6307851;22;20041;-90
2022/07/24 10:04:53;;;;;;;4.68;1.40;;;23.30;99.90;;;;;;6301422;22;20535;-91
2022/07/24 10:07:21;;;;;;;3.70;1.27;;;23.40;99.90;;;;;;6290174;22;20022;-91
2022/07/24 10:09:56;;;;;;;2.60;1.20;;;23.60;99.90;;;;;;6286533;22;20011;-92
2022/07/24 10:12:25;;;;;;;3.03;1.38;;;23.60;99.90;;;;;;6286357;22;20015;-93
2022/07/24 10:14:53;;;;;;;2.60;1.05;;;23.60;99.90;;;;;;6285938;22;20022;-90
2022/07/24 10:17:40;;;;;;;2.67;1.30;;;23.70;99.90;;;;;;6286240;22;20049;-92
2022/07/24 10:20:08;;;;;;;2.85;1.15;;;23.70;99.90;;;;;;6285866;22;20018;-91
2022/07/24 10:23:00;;;;;;;2.42;1.20;;;23.80;99.90;;;;;;6285749;22;20022;-91
2022/07/24 10:25:27;;;;;;;2.85;1.23;;;23.80;99.90;;;;;;6286186;22;20015;-90
2022/07/24 10:27:58;;;;;;;3.45;1.67;;;23.80;99.90;;;;;;6286229;22;20019;-89
2022/07/24 10:30:54;;;;;;;2.38;1.23;;;23.80;99.90;;;;;;6286123;22;20022;-91
2022/07/24 10:33:20;;;;;;;2.42;1.00;;;23.80;99.70;;;;;;6287489;22;20070;-91
2022/07/24 10:36:35;;;;;;;;;;;;;;;;;;;;;
2022/07/24 10:39:39;;;;;;;2.92;1.20;;;23.80;99.40;;;;;;6281342;22;20042;-92
2022/07/24 10:42:28;;;;;;;2.42;1.13;;;23.80;99.70;;;;;;6302463;22;20019;-95
2022/07/24 11:19:24;;;;;;;3.03;1.33;;;24.50;97.10;;;;;;6298912;22;20020;-95
2022/07/24 11:22:47;;;;;;;2.33;1.25;;;24.70;96.60;;;;;;6258232;22;20103;-93
2022/07/24 11:25:23;;;;;;;2.38;1.10;;;24.70;96.40;;;;;;6257204;22;20444;-94
2022/07/24 11:28:06;;;;;;;3.05;1.13;;;24.70;95.70;;;;;;6283476;22;20059;-96
2022/07/24 11:30:31;;;;;;;1.92;0.90;;;24.80;96.50;;;;;;6283588;22;20019;-92
2022/07/24 11:32:57;;;;;;;;;;;24.90;96.30;;;;;;6257414;22;20099;-95
2022/07/24 11:45:03;;;;;;;3.97;1.38;;;25.90;94.80;;;;;;6278086;22;20066;-95
2022/07/24 11:47:29;;;;;;;3.67;1.25;;;26.10;95.20;;;;;;6254711;22;20488;-91
2022/07/24 11:50:04;;;;;;;;;;;26.10;94.20;;;;;;6226448;22;20078;-91
2022/07/24 11:53:08;;;;;;;2.70;1.00;;;26.10;93.00;;;;;;6228653;22;19921;-95
2022/07/24 11:56:23;;;;;;;2.67;1.20;;;26.10;93.60;;;;;;6226484;22;20015;-93
2022/07/24 11:58:58;;;;;;;2.67;1.02;;;26.10;93.40;;;;;;6251049;22;20062;-92
2022/07/24 12:01:50;;;;;;;2.67;1.40;;;26.10;93.30;;;;;;6235438;22;20023;-94
2022/07/24 12:55:40;;;;;;;3.35;1.25;;;27.60;82.10;;;;;;6313218;22;20352;-92
2022/07/24 12:58:08;;;;;;;1.90;0.95;;;27.70;84.10;;;;;;6264146;22;20019;-91
2022/07/24 13:00:35;;;;;;;3.40;1.38;;;27.50;82.10;;;;;;6289344;22;20490;-91
2022/07/24 13:03:01;;;;;;;2.85;1.08;;;27.50;83.50;;;;;;6314588;22;20007;-91
2022/07/24 13:05:51;;;;;;;2.60;1.15;;;27.50;83.40;;;;;;6262885;22;20015;-87
2022/07/24 13:08:16;;;;;;;2.97;1.20;;;27.60;83.40;;;;;;6288420;22;20007;-93
2022/07/24 13:10:42;;;;;;;2.45;1.10;;;27.60;83.90;;;;;;6296099;22;20003;-94
2022/07/24 13:13:08;;;;;;;2.13;1.27;;;27.70;83.90;;;;;;6264836;22;20023;-95
2022/07/24 13:20:45;;;;;;;2.93;1.20;;;27.70;83.40;;;;;;6283280;22;20027;-90
2022/07/24 13:23:11;;;;;;;2.78;1.00;;;27.70;83.30;;;;;;6229401;22;20096;-91
2022/07/24 13:28:27;;;;;;;2.20;1.10;;;27.60;82.30;;;;;;6336257;22;20037;-95
2022/07/24 13:30:53;;;;;;;2.65;1.25;;;27.60;82.90;;;;;;6319689;22;20022;-96
2022/07/24 13:33:21;;;;;;;3.17;1.40;;;27.60;82.90;;;;;;6321325;22;20030;-91
2022/07/24 13:35:47;;;;;;;2.20;1.08;;;27.70;82.80;;;;;;6293146;22;20022;-93
2022/07/24 13:38:13;;;;;;;2.53;1.23;;;27.70;81.80;;;;;;6320504;22;20046;-92
2022/07/24 13:40:46;;;;;;;2.60;1.02;;;27.80;81.70;;;;;;6323926;22;20018;-91
2022/07/24 13:43:12;;;;;;;2.47;1.00;;;27.80;82.40;;;;;;6261665;22;20025;-94
2022/07/24 13:45:37;;;;;;;2.20;1.10;;;27.90;81.80;;;;;;6288374;22;20098;-88
2022/07/24 13:48:05;;;;;;;1.80;0.90;;;27.90;81.00;;;;;;6313928;22;20022;-90
2022/07/24 13:51:06;;;;;;;1.92;0.95;;;28.00;80.40;;;;;;6258976;22;20023;-91
2022/07/24 13:53:32;;;;;;;2.65;1.30;;;27.90;78.80;;;;;;6262661;22;20026;-91
2022/07/24 13:55:58;;;;;;;2.97;1.30;;;27.80;79.70;;;;;;6258417;22;20345;-93
2022/07/24 13:58:26;;;;;;;1.90;1.08;;;27.70;79.20;;;;;;6284626;22;20467;-88
2022/07/24 14:00:52;;;;;;;2.35;1.20;;;27.70;79.90;;;;;;6288301;22;20062;-92
2022/07/24 14:03:18;;;;;;;3.40;1.27;;;27.70;80.20;;;;;;6262644;22;20336;-93
2022/07/24 14:05:48;;;;;;;3.13;1.20;;;27.70;80.70;;;;;;6315918;22;20019;-86
2022/07/24 14:08:37;;;;;;;2.63;1.23;;;27.80;80.80;;;;;;6261051;22;20034;-92
2022/07/24 14:11:09;;;;;;;3.38;1.20;;;27.90;79.20;;;;;;6264900;22;20370;-90
2022/07/24 14:13:56;;;;;;;2.00;1.17;;;28.00;79.30;;;;;;6286965;22;20030;-90
2022/07/24 14:16:22;;;;;;;4.55;1.30;;;28.00;78.70;;;;;;6261436;22;20022;-91
2022/07/24 14:18:48;;;;;;;1.92;1.02;;;28.00;79.30;;;;;;6287176;22;20015;-90
2022/07/24 14:21:14;;;;;;;2.35;1.17;;;28.10;78.60;;;;;;6290280;22;20464;-95
2022/07/24 14:23:40;;;;;;;2.55;1.08;;;28.10;77.90;;;;;;6291348;22;20012;-91
2022/07/24 14:26:06;;;;;;;2.60;1.30;;;28.10;77.90;;;;;;6318979;22;20025;-88
2022/07/24 14:57:35;;;;;;;2.50;1.20;;;27.90;76.70;;;;;;6318337;22;20016;-92
2022/07/24 15:00:04;;;;;;;2.65;1.33;;;27.90;76.20;;;;;;6321301;22;20390;-90
2022/07/24 15:02:30;;;;;;;2.50;1.10;;;27.80;76.90;;;;;;6288102;22;20026;-93
2022/07/24 15:09:19;;;;;;;3.58;1.27;;;27.80;77.00;;;;;;6312772;22;20014;-96
2022/07/24 15:11:45;;;;;;;2.05;1.00;;;27.80;76.30;;;;;;6259663;22;20020;-93
2022/07/24 15:14:14;;;;;;;2.60;1.20;;;27.70;77.20;;;;;;6259974;22;20102;-95
2022/07/24 15:16:40;;;;;;;3.25;1.27;;;27.70;77.10;;;;;;6259543;22;20333;-96
2022/07/24 15:19:06;;;;;;;3.15;1.60;;;27.70;77.30;;;;;;6310745;22;20023;-93
2022/07/24 15:21:50;;;;;;;3.08;1.40;;;27.60;77.60;;;;;;6260056;22;20011;-94
2022/07/24 15:57:21;;;;;;;2.42;1.33;;;27.20;79.70;;;;;;6309219;22;20349;-91
2022/07/24 16:04:57;;;;;;;2.53;1.30;;;27.20;80.30;;;;;;6309608;22;20024;-93
2022/07/24 16:07:26;;;;;;;2.75;1.20;;;27.20;80.30;;;;;;6281984;22;20019;-90
2022/07/24 16:09:52;;;;;;;2.13;1.23;;;27.20;80.40;;;;;;6256711;22;20022;-91
2022/07/24 16:12:18;;;;;;;3.28;1.33;;;27.20;80.40;;;;;;6256387;22;20054;-92
2022/07/24 16:14:56;;;;;;;3.05;1.30;;;27.20;80.30;;;;;;6256219;22;20072;-91
2022/07/24 16:17:22;;;;;;;3.10;1.20;;;27.20;80.30;;;;;;6256217;22;20019;-93
2022/07/24 16:20:10;;;;;;;2.38;1.10;;;27.10;80.40;;;;;;6256809;22;20054;-94
2022/07/24 16:22:37;;;;;;;3.33;1.30;;;27.10;80.20;;;;;;6282064;22;20029;-91
2022/07/24 16:25:04;;;;;;;3.60;1.30;;;27.10;80.60;;;;;;6256734;22;20030;-93
2022/07/24 16:27:30;;;;;;;2.00;1.15;;;27.10;80.60;;;;;;6256806;22;20022;-94
2022/07/24 16:29:56;;;;;;;2.08;1.20;;;27.10;80.60;;;;;;6256968;22;20336;-93
2022/07/24 16:32:22;;;;;;;2.60;1.05;;;27.10;80.60;;;;;;6255943;22;20015;-91
2022/07/24 16:35:18;;;;;;;2.58;1.10;;;27.00;80.60;;;;;;6257101;22;20026;-91
2022/07/24 16:41:06;;;;;;;2.17;1.13;;;27.00;80.30;;;;;;6286315;22;20023;-91
2022/07/24 16:43:32;;;;;;;2.45;1.05;;;27.00;80.70;;;;;;6264298;22;20067;-92
2022/07/24 16:48:33;;;;;;;2.75;1.15;;;27.00;81.00;;;;;;6314333;22;20336;-95
2022/07/24 16:50:59;;;;;;;2.20;1.10;;;27.00;81.00;;;;;;6263980;22;20130;-96
2022/07/24 16:53:49;;;;;;;1.45;0.88;;;26.90;80.90;;;;;;6287757;22;20007;-94
2022/07/24 16:56:15;;;;;;;2.20;1.15;;;26.90;80.80;;;;;;6262064;22;20047;-92
2022/07/24 16:58:43;;;;;;;1.50;0.80;;;26.80;81.20;;;;;;6283073;22;20015;-96
2022/07/24 17:03:45;;;;;;;2.27;1.20;;;26.80;81.60;;;;;;6282728;22;20023;-96
2022/07/24 17:06:10;;;;;;;2.78;1.08;;;26.80;81.80;;;;;;6233093;22;20024;-95
2022/07/24 17:08:36;;;;;;;2.22;1.05;;;26.80;82.00;;;;;;6231569;22;20007;-95
2022/07/24 17:11:02;;;;;;;3.25;1.10;;;26.80;82.10;;;;;;6239772;22;19999;-95
2022/07/24 17:13:32;;;;;;;1.98;0.82;;;26.80;82.10;;;;;;6235751;22;20012;-95
2022/07/24 17:15:57;;;;;;;1.67;0.80;;;26.90;82.50;;;;;;6235909;22;20015;-96
2022/07/24 17:18:23;;;;;;;1.50;0.80;;;26.80;81.90;;;;;;6232000;22;20050;-96
2022/07/24 17:20:49;;;;;;;2.20;1.00;;;26.80;82.00;;;;;;6230573;22;20027;-95
2022/07/24 17:23:14;;;;;;;2.17;1.00;;;26.80;81.90;;;;;;6252759;22;20396;-95
2022/07/24 17:25:42;;;;;;;1.42;0.82;;;26.80;82.00;;;;;;6229328;22;20012;-94
2022/07/24 17:28:14;;;;;;;1.60;0.90;;;26.80;82.30;;;;;;6228221;22;20019;-96
2022/07/24 17:30:43;;;;;;;2.45;1.05;;;26.70;82.40;;;;;;6226326;22;20043;-93
2022/07/24 17:33:09;;;;;;;1.92;0.90;;;26.70;82.30;;;;;;6226902;22;20020;-95
2022/07/24 17:35:35;;;;;;;2.10;1.00;;;26.70;82.60;;;;;;6253870;22;20023;-94
2022/07/24 17:38:02;;;;;;;1.85;1.10;;;26.60;82.60;;;;;;6230819;22;20012;-95
2022/07/24 17:40:29;;;;;;;2.72;1.00;;;26.50;82.60;;;;;;6226284;22;20050;-93
2022/07/24 17:42:55;;;;;;;2.60;1.08;;;26.50;82.70;;;;;;6226545;22;20457;-94
2022/07/24 17:45:22;;;;;;;1.65;0.90;;;26.50;82.90;;;;;;6225416;22;20437;-95
2022/07/24 17:47:48;;;;;;;1.98;1.08;;;26.50;83.00;;;;;;6225645;22;20020;-95
2022/07/24 17:50:15;;;;;;;1.92;0.90;;;26.50;83.30;;;;;;6225940;22;20453;-93
2022/07/24 17:52:41;;;;;;;2.20;1.00;;;26.50;83.50;;;;;;6250388;22;20016;-93
2022/07/24 17:55:08;;;;;;;1.58;0.80;;;26.40;83.60;;;;;;6225723;22;20051;-96
2022/07/24 17:57:35;;;;;;;1.88;0.95;;;26.50;84.00;;;;;;6225450;22;20023;-95
2022/07/24 18:00:03;;;;;;;1.95;0.90;;;26.40;84.20;;;;;;6224897;22;20015;-94
2022/07/24 18:02:28;;;;;;;2.55;1.15;;;26.40;84.50;;;;;;6224897;22;20479;-93
2022/07/24 18:04:55;;;;;;;3.60;1.10;;;26.40;85.00;;;;;;6224703;22;20018;-96
2022/07/24 18:07:20;;;;;;;2.88;1.08;;;26.40;85.40;;;;;;6225027;22;20008;-95
2022/07/24 18:09:47;;;;;;;2.58;1.00;;;26.30;85.50;;;;;;6225135;22;20046;-93
2022/07/24 18:12:13;;;;;;;1.70;0.88;;;26.30;86.20;;;;;;6225113;22;20441;-96
2022/07/24 18:14:39;;;;;;;2.97;1.10;;;26.20;86.70;;;;;;6225037;22;20023;-96
2022/07/24 18:17:04;;;;;;;2.17;1.00;;;26.20;87.30;;;;;;6224973;22;20012;-92
2022/07/24 18:19:30;;;;;;;2.38;1.23;;;26.10;87.90;;;;;;6225007;22;20373;-94
2022/07/24 18:21:56;;;;;;;2.50;1.00;;;26.10;88.40;;;;;;6250256;22;20074;-95
2022/07/24 18:25:10;;;;;;;;;;;;;;;;;;;;;
2022/07/24 18:27:36;;;;;;;1.75;0.85;;;25.90;89.80;;;;;;6239744;22;20016;-94